Time;durP1;ratioP1;P1;durP2;ratioP2;P2;SDS_P1;SDS_P2;PMS_P1;PMS_P2;Temp;Humidity;BMP_temperature;BMP_pressure;BME280_temperature;BME280_humidity;BME280_pressure;Samples;Min_cycle;Max_cycle;Signal;HPM_P1;HPM_P2
2023/03/29 00:00:26;;;;;;;10.10;4.20;;;10.50;99.90;;;;;;7282381;19;20703;-76
2023/03/29 00:02:55;;;;;;;10.57;4.20;;;10.40;99.90;;;;;;7282452;19;20319;-76
2023/03/29 00:05:21;;;;;;;14.73;4.40;;;10.50;99.90;;;;;;7282530;19;20229;-76
2023/03/29 00:07:52;;;;;;;12.03;4.00;;;10.50;99.90;;;;;;7282320;19;20256;-76
2023/03/29 00:10:21;;;;;;;10.57;3.77;;;10.40;99.90;;;;;;7283284;19;20193;-76
2023/03/29 00:12:47;;;;;;;13.07;4.30;;;10.40;99.90;;;;;;7281432;19;20194;-77
2023/03/29 00:15:13;;;;;;;14.23;4.37;;;10.40;99.90;;;;;;7281590;19;20923;-77
2023/03/29 00:17:39;;;;;;;14.40;4.73;;;10.40;99.90;;;;;;7281208;19;20196;-77
2023/03/29 00:20:09;;;;;;;12.87;4.87;;;10.50;99.90;;;;;;7283291;19;20183;-77
2023/03/29 00:22:40;;;;;;;15.43;4.90;;;10.50;99.90;;;;;;7283782;19;20191;-77
2023/03/29 00:25:07;;;;;;;14.10;5.30;;;10.50;99.90;;;;;;7283046;19;20200;-76
2023/03/29 00:27:32;;;;;;;13.00;4.73;;;10.60;99.90;;;;;;7290971;19;20564;-76
2023/03/29 00:29:58;;;;;;;16.87;5.23;;;10.50;99.90;;;;;;7303158;19;20184;-76
2023/03/29 00:32:25;;;;;;;14.93;4.70;;;10.60;99.90;;;;;;7284415;19;20680;-77
2023/03/29 00:34:51;;;;;;;14.63;5.40;;;10.60;99.90;;;;;;7282171;19;20204;-76
2023/03/29 00:37:17;;;;;;;15.13;5.73;;;10.50;99.90;;;;;;7282785;19;20208;-77
2023/03/29 00:39:44;;;;;;;13.43;5.10;;;10.60;99.90;;;;;;7282109;19;20191;-77
2023/03/29 00:42:12;;;;;;;14.47;5.50;;;10.50;99.90;;;;;;7282091;19;20291;-77
2023/03/29 00:45:01;;;;;;;13.53;5.30;;;10.50;99.90;;;;;;7281407;19;20248;-76
2023/03/29 00:47:37;;;;;;;13.40;5.37;;;10.50;99.90;;;;;;7281908;19;20672;-76
2023/03/29 00:50:14;;;;;;;11.73;5.00;;;10.40;99.90;;;;;;7266072;19;20687;-76
2023/03/29 00:52:43;;;;;;;14.03;4.97;;;10.50;99.90;;;;;;7281107;19;20196;-77
2023/03/29 00:55:18;;;;;;;12.80;4.77;;;10.50;99.90;;;;;;7280441;19;20181;-76
2023/03/29 00:57:45;;;;;;;13.00;4.93;;;10.50;99.90;;;;;;7278544;19;20658;-77
2023/03/29 01:00:16;;;;;;;14.47;5.63;;;10.50;99.90;;;;;;7281210;19;20195;-77
2023/03/29 01:02:49;;;;;;;13.97;4.97;;;10.60;99.90;;;;;;7281206;19;20648;-76
2023/03/29 01:05:28;;;;;;;15.17;5.43;;;10.60;99.90;;;;;;7280312;19;20672;-77
2023/03/29 01:08:02;;;;;;;11.77;4.63;;;10.70;99.90;;;;;;7279563;19;20212;-77
2023/03/29 01:10:41;;;;;;;12.03;5.20;;;10.70;99.90;;;;;;7281303;19;20209;-76
2023/03/29 01:13:12;;;;;;;13.57;4.70;;;10.70;99.90;;;;;;7178674;19;2006488;-77
2023/03/29 01:15:40;;;;;;;13.97;5.07;;;10.70;99.90;;;;;;7281349;19;20189;-77
2023/03/29 01:18:07;;;;;;;15.70;4.77;;;10.70;99.90;;;;;;7281648;19;20228;-77
2023/03/29 01:21:03;;;;;;;12.93;4.30;;;10.80;99.90;;;;;;7287296;19;20202;-77
2023/03/29 01:24:09;;;;;;;12.87;4.50;;;10.80;99.90;;;;;;7282247;19;20248;-77
2023/03/29 01:26:58;;;;;;;9.53;3.60;;;10.80;99.90;;;;;;7079158;19;2005006;-76
2023/03/29 01:29:42;;;;;;;10.93;3.27;;;10.80;99.90;;;;;;7288299;19;20585;-76
2023/03/29 01:32:13;;;;;;;9.17;3.50;;;10.60;99.90;;;;;;7187007;19;2004393;-76
2023/03/29 01:34:46;;;;;;;11.77;3.50;;;10.40;99.90;;;;;;7285549;19;20293;-77
2023/03/29 01:37:26;;;;;;;10.07;3.40;;;10.40;99.90;;;;;;7286947;19;20638;-77
2023/03/29 01:39:52;;;;;;;12.07;4.03;;;10.40;99.90;;;;;;7287776;19;20638;-76
2023/03/29 01:42:34;;;;;;;14.87;4.40;;;10.50;99.90;;;;;;7285938;19;20181;-77
2023/03/29 01:45:11;;;;;;;15.43;4.10;;;10.50;99.90;;;;;;7288003;19;20223;-76
2023/03/29 01:47:52;;;;;;;11.27;4.40;;;10.60;99.90;;;;;;7184132;19;2004549;-77
2023/03/29 01:50:45;;;;;;;11.40;4.27;;;10.70;99.90;;;;;;7287500;19;20201;-77
2023/03/29 01:53:33;;;;;;;13.90;4.57;;;10.70;99.90;;;;;;7183991;19;2004732;-77
2023/03/29 01:56:05;;;;;;;13.97;4.53;;;10.60;99.90;;;;;;7288042;19;20204;-77
2023/03/29 01:58:39;;;;;;;14.10;4.37;;;10.70;99.90;;;;;;7286478;19;20251;-77
2023/03/29 02:01:09;;;;;;;12.87;4.50;;;10.80;99.90;;;;;;7264495;19;20212;-77
2023/03/29 02:03:41;;;;;;;13.73;5.37;;;10.90;99.90;;;;;;7285028;19;20189;-76
2023/03/29 02:06:17;;;;;;;10.03;4.10;;;10.70;99.90;;;;;;7287831;19;20265;-77
2023/03/29 02:08:44;;;;;;;10.43;4.37;;;10.70;99.90;;;;;;7286481;19;20199;-77
2023/03/29 02:11:13;;;;;;;11.00;4.30;;;10.60;99.90;;;;;;7286648;19;20778;-77
2023/03/29 02:13:39;;;;;;;11.17;4.20;;;10.60;99.90;;;;;;7283164;19;20192;-77
2023/03/29 02:16:10;;;;;;;11.83;4.20;;;10.60;99.90;;;;;;7286816;19;20290;-76
2023/03/29 02:18:40;;;;;;;14.97;4.90;;;10.50;99.90;;;;;;7287703;19;20514;-77
2023/03/29 02:21:07;;;;;;;12.07;5.10;;;10.60;99.90;;;;;;7286242;19;20184;-77
2023/03/29 02:23:40;;;;;;;13.97;5.43;;;10.70;99.90;;;;;;7294314;19;20219;-77
2023/03/29 02:26:07;;;;;;;13.17;4.67;;;10.80;99.90;;;;;;7286088;19;20630;-77
2023/03/29 02:28:34;;;;;;;11.03;4.63;;;10.70;99.90;;;;;;7292086;19;20196;-76
2023/03/29 02:31:17;;;;;;;14.40;5.50;;;10.80;99.90;;;;;;7308242;19;20204;-77
2023/03/29 02:34:12;;;;;;;15.50;5.33;;;10.80;99.90;;;;;;7183247;19;2004673;-76
2023/03/29 02:36:46;;;;;;;12.10;4.67;;;10.80;99.90;;;;;;7181535;19;2004594;-76
2023/03/29 02:39:14;;;;;;;15.37;5.13;;;10.70;99.90;;;;;;7284390;19;20216;-77
2023/03/29 02:41:44;;;;;;;14.77;5.17;;;10.70;99.90;;;;;;7284606;19;20631;-77
2023/03/29 02:44:13;;;;;;;11.23;4.63;;;10.60;99.90;;;;;;7284580;19;20285;-77
2023/03/29 02:46:42;;;;;;;15.40;5.00;;;10.70;99.90;;;;;;7284413;19;20196;-77
2023/03/29 02:49:11;;;;;;;15.47;5.80;;;10.70;99.90;;;;;;7284251;19;20707;-76
2023/03/29 02:51:37;;;;;;;15.13;5.13;;;10.80;99.90;;;;;;7285522;19;20731;-77
2023/03/29 02:54:21;;;;;;;14.93;5.37;;;10.80;99.90;;;;;;7294029;19;20204;-76
2023/03/29 02:56:54;;;;;;;16.50;5.47;;;10.80;99.90;;;;;;7284298;19;20205;-77
2023/03/29 02:59:21;;;;;;;17.47;5.80;;;10.80;99.90;;;;;;7285102;19;20193;-77
2023/03/29 03:01:48;;;;;;;15.57;5.43;;;10.90;99.90;;;;;;7284952;19;20228;-77
2023/03/29 03:04:14;;;;;;;12.67;5.33;;;10.90;99.90;;;;;;7284495;19;20184;-76
2023/03/29 03:06:40;;;;;;;16.20;6.20;;;10.90;99.90;;;;;;7283903;19;20702;-76
2023/03/29 03:09:09;;;;;;;16.93;6.20;;;10.90;99.90;;;;;;7284401;19;20191;-76
2023/03/29 03:11:37;;;;;;;15.57;6.10;;;10.90;99.90;;;;;;7285217;19;20211;-76
2023/03/29 03:14:04;;;;;;;15.07;6.20;;;10.90;99.90;;;;;;7297223;19;20192;-76
2023/03/29 03:16:30;;;;;;;18.13;6.27;;;10.90;99.90;;;;;;7305100;19;20228;-76
2023/03/29 03:18:56;;;;;;;15.90;6.27;;;10.90;99.90;;;;;;7282474;19;20200;-76
2023/03/29 03:21:22;;;;;;;16.30;6.53;;;10.90;99.90;;;;;;7284318;19;20197;-76
2023/03/29 03:23:48;;;;;;;17.93;6.07;;;10.80;99.90;;;;;;7285317;19;20583;-76
2023/03/29 03:26:15;;;;;;;17.20;5.83;;;10.80;99.90;;;;;;7284734;19;20192;-76
2023/03/29 03:28:42;;;;;;;13.57;5.57;;;10.80;99.90;;;;;;7283565;19;20257;-76
2023/03/29 03:31:16;;;;;;;14.33;5.43;;;10.80;99.90;;;;;;7283616;19;20207;-76
2023/03/29 03:34:01;;;;;;;16.30;6.30;;;10.80;99.90;;;;;;7285253;19;20273;-76
2023/03/29 03:36:42;;;;;;;14.80;5.40;;;10.90;99.90;;;;;;7182114;19;2004572;-76
2023/03/29 03:39:08;;;;;;;13.77;4.70;;;11.00;99.90;;;;;;7284180;19;20192;-76
2023/03/29 03:41:34;;;;;;;13.90;4.93;;;11.00;99.90;;;;;;7288668;19;20185;-76
2023/03/29 03:44:00;;;;;;;14.27;5.10;;;11.10;99.90;;;;;;7305955;19;20212;-76
2023/03/29 03:46:27;;;;;;;14.90;4.97;;;11.00;99.90;;;;;;7284327;19;20185;-76
2023/03/29 03:48:53;;;;;;;12.73;4.60;;;11.00;99.90;;;;;;7280487;19;20209;-76
2023/03/29 03:51:25;;;;;;;15.43;4.60;;;10.90;99.90;;;;;;7283779;19;20354;-76
2023/03/29 03:53:51;;;;;;;12.47;4.67;;;10.80;99.90;;;;;;7283021;19;20203;-76
2023/03/29 03:56:33;;;;;;;13.07;4.60;;;10.70;99.90;;;;;;7283741;19;20184;-76
2023/03/29 03:59:26;;;;;;;13.80;4.70;;;10.60;99.90;;;;;;7182525;19;2004313;-76
2023/03/29 04:02:06;;;;;;;11.40;4.43;;;10.60;99.90;;;;;;7261323;19;20193;-74
2023/03/29 04:04:35;;;;;;;14.57;4.77;;;10.50;99.90;;;;;;7283492;19;20195;-74
2023/03/29 04:07:05;;;;;;;16.63;5.60;;;10.40;99.90;;;;;;7282037;19;20656;-75
2023/03/29 04:10:00;;;;;;;14.23;4.93;;;10.30;99.90;;;;;;7282815;19;20190;-75
2023/03/29 04:12:48;;;;;;;17.33;5.07;;;10.10;99.90;;;;;;7180721;19;2004398;-77
2023/03/29 04:15:16;;;;;;;14.30;5.40;;;10.10;99.90;;;;;;7282861;19;20694;-77
2023/03/29 04:17:47;;;;;;;17.07;5.80;;;10.10;99.90;;;;;;7282504;19;20196;-77
2023/03/29 04:20:23;;;;;;;13.83;5.47;;;10.00;99.90;;;;;;7281906;19;20213;-77
2023/03/29 04:22:50;;;;;;;13.97;5.60;;;9.90;99.90;;;;;;7281267;19;20262;-77
2023/03/29 04:25:16;;;;;;;18.57;5.90;;;9.90;99.90;;;;;;7282455;19;20200;-77
2023/03/29 04:27:49;;;;;;;15.13;5.83;;;9.90;99.90;;;;;;7282237;19;20191;-76
2023/03/29 04:30:35;;;;;;;17.97;6.97;;;10.00;99.90;;;;;;7263943;19;20192;-76
2023/03/29 04:33:10;;;;;;;15.60;5.90;;;9.90;99.90;;;;;;7284160;19;20262;-77
2023/03/29 04:35:38;;;;;;;19.20;6.73;;;10.00;99.90;;;;;;7282984;19;20189;-76
2023/03/29 04:38:08;;;;;;;16.67;6.50;;;10.10;99.90;;;;;;7285155;19;20776;-77
2023/03/29 04:40:36;;;;;;;16.37;5.97;;;10.10;99.90;;;;;;7283455;19;20193;-77
2023/03/29 04:43:10;;;;;;;14.47;5.80;;;10.20;99.90;;;;;;7283436;19;20202;-76
2023/03/29 04:45:42;;;;;;;17.50;5.90;;;10.20;99.90;;;;;;7281518;19;20190;-76
2023/03/29 04:48:12;;;;;;;17.17;6.00;;;10.20;99.90;;;;;;7280799;19;20192;-77
2023/03/29 04:50:45;;;;;;;16.00;5.97;;;10.30;99.90;;;;;;7280575;19;20196;-77
2023/03/29 04:53:11;;;;;;;13.70;5.63;;;10.30;99.90;;;;;;7281984;19;20204;-77
2023/03/29 04:55:41;;;;;;;13.83;5.80;;;10.40;99.90;;;;;;7280479;19;20251;-77
2023/03/29 04:58:10;;;;;;;13.57;5.80;;;10.50;99.90;;;;;;7280790;19;20272;-75
2023/03/29 05:00:41;;;;;;;18.87;6.63;;;10.70;99.90;;;;;;7286956;19;20655;-77
2023/03/29 05:03:19;;;;;;;15.33;5.77;;;10.70;99.90;;;;;;7289577;19;20188;-77
2023/03/29 05:06:05;;;;;;;14.87;5.80;;;10.80;99.90;;;;;;7290194;19;20196;-77
2023/03/29 05:08:39;;;;;;;17.13;5.93;;;10.80;99.90;;;;;;7290154;19;20181;-77
2023/03/29 05:11:28;;;;;;;18.17;6.00;;;10.80;99.90;;;;;;7185151;19;2004472;-77
2023/03/29 05:13:56;;;;;;;17.23;6.40;;;10.90;99.90;;;;;;7290421;19;20190;-77
2023/03/29 05:16:25;;;;;;;15.53;6.33;;;10.90;99.90;;;;;;7286362;19;20201;-77
2023/03/29 05:18:54;;;;;;;15.33;5.97;;;10.90;99.90;;;;;;7287966;19;20585;-76
2023/03/29 05:21:20;;;;;;;18.77;6.10;;;10.90;99.90;;;;;;7287902;19;20191;-76
2023/03/29 05:23:47;;;;;;;18.87;6.30;;;10.80;99.90;;;;;;7287428;19;20640;-74
2023/03/29 05:26:14;;;;;;;17.13;6.67;;;10.80;99.90;;;;;;7287302;19;20237;-75
2023/03/29 05:28:41;;;;;;;18.57;7.20;;;10.80;99.90;;;;;;7287002;19;20185;-75
2023/03/29 05:31:07;;;;;;;18.43;6.87;;;10.70;99.90;;;;;;7286209;19;20730;-74
2023/03/29 05:33:35;;;;;;;17.60;6.87;;;10.70;99.90;;;;;;7286159;19;20197;-76
2023/03/29 05:36:14;;;;;;;17.33;6.53;;;10.50;99.90;;;;;;7301521;19;20254;-75
2023/03/29 05:38:45;;;;;;;16.90;6.73;;;10.60;99.90;;;;;;7287751;19;20206;-75
2023/03/29 05:41:12;;;;;;;18.03;6.67;;;10.70;99.90;;;;;;7286494;19;20248;-75
2023/03/29 05:44:01;;;;;;;14.87;5.93;;;10.70;99.90;;;;;;7286884;19;20632;-75
2023/03/29 05:46:27;;;;;;;14.73;6.03;;;10.80;99.90;;;;;;7285834;19;20209;-75
2023/03/29 05:48:56;;;;;;;19.87;6.57;;;10.80;99.90;;;;;;7285538;19;20297;-75
2023/03/29 05:51:34;;;;;;;16.13;5.90;;;10.90;99.90;;;;;;7286357;19;20254;-75
2023/03/29 05:54:00;;;;;;;15.47;5.67;;;10.90;99.90;;;;;;7285239;19;20197;-75
2023/03/29 05:56:27;;;;;;;14.60;6.07;;;10.90;99.90;;;;;;7285918;19;20695;-76
2023/03/29 05:58:55;;;;;;;17.63;6.07;;;11.00;99.90;;;;;;7286161;19;20692;-75
2023/03/29 06:01:23;;;;;;;13.33;5.43;;;11.10;99.90;;;;;;7285614;19;20306;-75
2023/03/29 06:03:57;;;;;;;12.53;5.80;;;11.20;99.90;;;;;;7285483;19;20664;-76
2023/03/29 06:06:30;;;;;;;10.93;5.17;;;11.30;99.90;;;;;;7286590;19;20750;-75
2023/03/29 06:08:58;;;;;;;11.20;4.87;;;11.20;99.90;;;;;;7285536;19;20193;-75
2023/03/29 06:11:33;;;;;;;12.37;5.30;;;11.30;99.90;;;;;;7284822;19;20265;-75
2023/03/29 06:14:08;;;;;;;13.07;5.47;;;11.40;99.90;;;;;;7184040;19;2004643;-76
2023/03/29 06:16:39;;;;;;;13.87;5.60;;;11.40;99.90;;;;;;7284837;19;20259;-76
2023/03/29 06:19:06;;;;;;;16.33;6.37;;;11.40;99.90;;;;;;7286663;19;20189;-76
2023/03/29 06:21:33;;;;;;;11.80;5.70;;;11.60;99.90;;;;;;7308086;19;20285;-76
2023/03/29 06:23:59;;;;;;;17.27;6.77;;;11.60;99.90;;;;;;7285582;19;20210;-76
2023/03/29 06:26:28;;;;;;;13.53;6.63;;;11.60;99.90;;;;;;7281780;19;20186;-76
2023/03/29 06:28:54;;;;;;;17.23;6.20;;;11.60;99.90;;;;;;7285632;19;20199;-76
2023/03/29 06:31:19;;;;;;;13.10;5.90;;;11.60;99.90;;;;;;7284143;19;20212;-76
2023/03/29 06:33:48;;;;;;;16.20;6.00;;;11.60;99.90;;;;;;7285317;19;20197;-76
2023/03/29 06:36:33;;;;;;;16.33;5.50;;;11.60;99.90;;;;;;7286954;19;20194;-75
2023/03/29 06:38:59;;;;;;;13.90;5.40;;;11.60;99.90;;;;;;7283508;19;20221;-76
2023/03/29 06:41:43;;;;;;;13.70;5.07;;;11.50;99.90;;;;;;7182960;19;2004796;-76
2023/03/29 06:44:09;;;;;;;12.93;4.63;;;11.60;99.90;;;;;;7284246;19;20695;-76
2023/03/29 06:46:43;;;;;;;13.10;5.10;;;11.50;99.90;;;;;;7285873;19;20208;-76
2023/03/29 06:49:09;;;;;;;11.07;4.60;;;11.50;99.90;;;;;;7283874;19;20198;-75
2023/03/29 06:51:45;;;;;;;11.70;5.03;;;11.50;99.90;;;;;;7282162;19;20188;-76
2023/03/29 06:54:12;;;;;;;12.70;4.77;;;11.50;99.90;;;;;;7283595;19;20205;-76
2023/03/29 06:56:46;;;;;;;12.53;4.70;;;11.60;99.90;;;;;;7284552;19;20178;-76
2023/03/29 06:59:14;;;;;;;9.93;4.20;;;11.70;99.90;;;;;;7284431;19;20672;-76
2023/03/29 07:02:02;;;;;;;10.60;4.37;;;11.80;99.90;;;;;;7284718;19;20744;-76
2023/03/29 07:04:43;;;;;;;9.03;4.00;;;11.70;99.90;;;;;;7182601;19;2004475;-76
2023/03/29 07:07:20;;;;;;;9.97;4.17;;;11.70;99.90;;;;;;7284597;19;20202;-74
2023/03/29 07:09:57;;;;;;;11.00;4.17;;;11.70;99.90;;;;;;7283406;19;20212;-73
2023/03/29 07:12:59;;;;;;;12.93;4.07;;;11.80;99.90;;;;;;7181944;19;2004389;-73
2023/03/29 07:15:26;;;;;;;10.10;4.07;;;11.90;99.90;;;;;;7282684;19;20190;-73
2023/03/29 07:18:18;;;;;;;11.63;3.83;;;12.00;99.90;;;;;;7181616;19;2004421;-74
2023/03/29 07:20:44;;;;;;;8.37;3.83;;;12.10;99.90;;;;;;7282307;19;20205;-73
2023/03/29 07:23:10;;;;;;;11.63;4.00;;;12.20;99.90;;;;;;7283475;19;20552;-74
2023/03/29 07:25:37;;;;;;;14.50;4.37;;;12.30;99.90;;;;;;7284929;19;20209;-74
2023/03/29 07:28:03;;;;;;;10.93;4.00;;;12.40;99.90;;;;;;7304710;19;20252;-73
2023/03/29 07:30:31;;;;;;;10.80;4.00;;;12.60;99.90;;;;;;7284071;19;20252;-73
2023/03/29 07:33:08;;;;;;;9.43;3.77;;;12.70;99.90;;;;;;7260602;19;20200;-75
2023/03/29 07:35:42;;;;;;;8.53;3.80;;;12.70;99.90;;;;;;7281787;19;20187;-74
2023/03/29 07:38:08;;;;;;;8.83;4.20;;;12.70;99.90;;;;;;7283642;19;20194;-74
2023/03/29 07:40:35;;;;;;;10.30;4.17;;;12.60;99.90;;;;;;7285362;19;20182;-73
2023/03/29 07:43:20;;;;;;;11.83;4.97;;;12.60;99.90;;;;;;7282183;19;20281;-74
2023/03/29 07:45:47;;;;;;;7.77;4.23;;;12.70;99.90;;;;;;7281877;19;20201;-74
2023/03/29 07:48:14;;;;;;;10.37;4.03;;;12.90;99.90;;;;;;7282703;19;20210;-74
2023/03/29 07:50:52;;;;;;;10.97;4.53;;;13.10;99.90;;;;;;7281979;19;20272;-74
2023/03/29 07:53:23;;;;;;;12.77;4.40;;;13.20;99.90;;;;;;7282187;19;20218;-74
2023/03/29 07:55:53;;;;;;;9.30;4.27;;;13.10;99.90;;;;;;7278082;19;20656;-73
2023/03/29 07:58:42;;;;;;;10.13;4.10;;;13.10;99.90;;;;;;7179973;19;2004644;-74
2023/03/29 08:01:08;;;;;;;10.73;4.30;;;13.00;99.90;;;;;;7281748;19;20195;-74
2023/03/29 08:03:57;;;;;;;15.37;4.23;;;13.00;99.90;;;;;;7283335;19;20199;-74
2023/03/29 08:06:43;;;;;;;9.63;4.17;;;13.10;99.90;;;;;;7180644;19;2005167;-74
2023/03/29 08:09:08;;;;;;;10.00;4.20;;;13.20;99.90;;;;;;7282027;19;20199;-74
2023/03/29 08:11:34;;;;;;;11.17;4.43;;;13.40;99.90;;;;;;7297608;19;20195;-74
2023/03/29 08:14:03;;;;;;;9.80;4.37;;;13.60;99.90;;;;;;7305256;19;20184;-74
2023/03/29 08:16:47;;;;;;;13.17;4.37;;;13.80;99.90;;;;;;7178528;19;2004617;-73
2023/03/29 08:19:15;;;;;;;12.80;4.43;;;13.90;99.90;;;;;;7279921;19;20544;-75
2023/03/29 08:21:53;;;;;;;11.10;3.97;;;13.90;99.90;;;;;;7280158;19;20650;-75
2023/03/29 08:24:22;;;;;;;10.63;4.17;;;13.80;99.90;;;;;;7280645;19;20227;-75
2023/03/29 08:26:54;;;;;;;11.00;4.10;;;13.70;99.90;;;;;;7281982;19;20194;-75
2023/03/29 08:29:19;;;;;;;9.10;3.80;;;13.70;99.90;;;;;;7279685;19;20195;-75
2023/03/29 08:31:46;;;;;;;9.67;4.20;;;13.90;99.90;;;;;;7281746;19;20213;-75
2023/03/29 08:34:12;;;;;;;10.23;4.00;;;14.30;99.90;;;;;;7282738;19;20188;-75
2023/03/29 08:36:58;;;;;;;12.03;4.30;;;14.50;99.90;;;;;;7287280;19;20189;-74
2023/03/29 08:39:33;;;;;;;9.43;3.97;;;14.90;99.90;;;;;;7287972;19;20201;-73
2023/03/29 08:42:36;;;;;;;10.97;4.40;;;15.10;99.90;;;;;;7186271;19;2004428;-74
2023/03/29 08:45:21;;;;;;;11.53;4.53;;;15.00;99.90;;;;;;7289609;19;20527;-76
2023/03/29 08:47:57;;;;;;;8.50;4.00;;;15.00;99.90;;;;;;7185475;19;2004587;-75
2023/03/29 08:50:32;;;;;;;11.80;4.43;;;15.30;99.90;;;;;;7286045;19;20201;-75
2023/03/29 08:53:03;;;;;;;11.67;4.83;;;15.30;99.90;;;;;;7287875;19;20195;-75
2023/03/29 08:56:03;;;;;;;10.53;3.93;;;15.40;99.90;;;;;;7183903;19;2004603;-76
2023/03/29 08:58:53;;;;;;;10.57;4.53;;;15.60;99.90;;;;;;7185415;19;2004623;-76
2023/03/29 09:01:21;;;;;;;14.30;4.63;;;15.40;99.90;;;;;;7287052;19;20217;-76
2023/03/29 09:04:05;;;;;;;10.87;4.00;;;15.50;99.90;;;;;;7287673;19;20206;-75
2023/03/29 09:06:47;;;;;;;13.40;4.23;;;15.60;99.90;;;;;;7185774;19;2004580;-76
2023/03/29 09:09:22;;;;;;;12.97;4.60;;;15.70;99.90;;;;;;7287728;19;20178;-76
2023/03/29 09:12:10;;;;;;;9.87;4.33;;;15.60;99.90;;;;;;7287869;19;20187;-76
2023/03/29 09:15:05;;;;;;;11.80;4.27;;;15.80;99.90;;;;;;7264339;19;20186;-76
2023/03/29 09:17:59;;;;;;;10.20;4.00;;;15.40;99.90;;;;;;7287858;19;20197;-75
2023/03/29 09:20:46;;;;;;;10.33;4.77;;;15.30;99.90;;;;;;7186083;19;2004616;-76
2023/03/29 09:23:22;;;;;;;12.07;5.00;;;15.40;99.90;;;;;;7184622;19;2004650;-76
2023/03/29 09:26:27;;;;;;;12.20;4.60;;;15.90;99.90;;;;;;7266320;19;20207;-76
2023/03/29 09:29:19;;;;;;;12.40;4.70;;;16.70;99.90;;;;;;7181427;19;2004588;-75
2023/03/29 09:31:46;;;;;;;11.27;4.40;;;16.60;99.90;;;;;;7285707;19;20605;-76
2023/03/29 09:34:40;;;;;;;13.77;4.67;;;16.30;99.90;;;;;;7286563;19;20739;-75
2023/03/29 09:37:30;;;;;;;11.67;4.07;;;16.60;99.90;;;;;;7184679;19;2004840;-75
2023/03/29 09:39:57;;;;;;;15.43;5.10;;;17.10;99.90;;;;;;7286917;19;21137;-75
2023/03/29 09:42:36;;;;;;;9.77;4.30;;;17.40;99.90;;;;;;7286776;19;20192;-75
2023/03/29 09:45:07;;;;;;;12.20;4.30;;;17.80;99.90;;;;;;7286374;19;20192;-75
2023/03/29 09:48:01;;;;;;;11.20;3.90;;;17.50;99.90;;;;;;7261136;19;20205;-75
2023/03/29 09:50:42;;;;;;;10.87;3.90;;;17.80;99.90;;;;;;7285697;19;20212;-75
2023/03/29 09:53:09;;;;;;;10.60;3.97;;;17.90;99.90;;;;;;7286450;19;20197;-75
2023/03/29 09:55:39;;;;;;;11.43;4.43;;;18.20;99.90;;;;;;7285509;19;20664;-75
2023/03/29 09:58:23;;;;;;;8.20;4.07;;;18.30;99.90;;;;;;7285950;19;20189;-75
2023/03/29 10:00:52;;;;;;;10.93;4.20;;;18.60;99.90;;;;;;7285753;19;20188;-76
2023/03/29 10:03:24;;;;;;;7.87;3.70;;;19.50;99.90;;;;;;7284775;19;20184;-76
2023/03/29 10:06:05;;;;;;;12.27;3.83;;;20.10;99.90;;;;;;7287851;19;20184;-76
2023/03/29 10:08:45;;;;;;;10.67;3.37;;;19.80;99.90;;;;;;7284842;19;20189;-76
2023/03/29 10:11:18;;;;;;;10.73;3.47;;;20.90;99.90;;;;;;7183304;19;2004564;-76
2023/03/29 10:13:49;;;;;;;8.43;3.17;;;21.50;99.90;;;;;;7285535;19;20189;-76
2023/03/29 10:16:23;;;;;;;12.07;3.60;;;22.20;99.90;;;;;;7284579;19;20226;-76
2023/03/29 10:18:49;;;;;;;7.17;3.23;;;23.80;99.90;;;;;;7286613;19;20251;-75
2023/03/29 10:21:16;;;;;;;7.63;3.10;;;25.60;99.90;;;;;;7284172;19;20256;-76
2023/03/29 10:23:42;;;;;;;6.67;3.30;;;25.60;99.90;;;;;;7286921;19;20204;-76
2023/03/29 10:26:30;;;;;;;8.97;3.90;;;25.20;99.90;;;;;;7286395;19;20195;-75
2023/03/29 10:28:59;;;;;;;8.43;3.70;;;23.40;99.90;;;;;;7283149;19;20195;-76
2023/03/29 10:31:28;;;;;;;8.40;3.47;;;22.20;99.90;;;;;;7285322;19;20218;-75
2023/03/29 10:33:56;;;;;;;11.47;3.83;;;21.10;99.90;;;;;;7286893;19;20291;-74
2023/03/29 10:36:25;;;;;;;8.57;3.57;;;20.50;99.90;;;;;;7284205;19;20249;-74
2023/03/29 10:38:52;;;;;;;7.43;3.40;;;20.60;99.90;;;;;;7286027;19;20205;-74
2023/03/29 10:41:21;;;;;;;15.57;5.10;;;20.70;99.90;;;;;;7285091;19;20187;-74
2023/03/29 10:43:49;;;;;;;10.30;4.20;;;20.90;99.90;;;;;;7283920;19;20190;-74
2023/03/29 10:46:20;;;;;;;10.77;3.97;;;19.90;99.90;;;;;;7284209;19;20219;-73
2023/03/29 10:48:54;;;;;;;8.57;3.70;;;19.50;99.90;;;;;;7284272;19;20562;-74
2023/03/29 10:51:22;;;;;;;8.37;3.83;;;19.30;99.90;;;;;;7284430;19;20554;-74
2023/03/29 10:53:48;;;;;;;11.27;3.93;;;19.10;99.90;;;;;;7283297;19;20207;-74
2023/03/29 10:56:23;;;;;;;9.30;4.30;;;19.10;99.90;;;;;;7284933;19;20193;-74
2023/03/29 10:59:10;;;;;;;12.10;3.70;;;19.40;99.90;;;;;;7282912;19;20208;-74
2023/03/29 11:01:50;;;;;;;11.40;3.70;;;19.50;99.90;;;;;;7264710;19;20226;-74
2023/03/29 11:04:40;;;;;;;9.43;3.97;;;19.30;99.90;;;;;;7284134;19;20267;-74
2023/03/29 11:07:33;;;;;;;5.50;2.77;;;19.20;99.90;;;;;;7262203;19;20217;-74
2023/03/29 11:09:59;;;;;;;7.87;2.50;;;19.20;99.90;;;;;;7282443;19;20197;-74
2023/03/29 11:12:30;;;;;;;5.23;2.43;;;19.70;99.90;;;;;;7284510;19;20186;-74
2023/03/29 11:15:13;;;;;;;4.23;2.30;;;20.00;99.90;;;;;;7284314;19;20185;-74
2023/03/29 11:18:00;;;;;;;3.83;2.00;;;19.70;99.90;;;;;;7262968;19;20200;-75
2023/03/29 11:20:54;;;;;;;6.27;2.43;;;19.20;99.90;;;;;;7284363;19;20189;-75
2023/03/29 11:23:43;;;;;;;8.70;2.70;;;19.10;99.90;;;;;;7180713;19;2004698;-75
2023/03/29 11:26:16;;;;;;;5.87;2.40;;;19.00;99.90;;;;;;7262535;19;20183;-75
2023/03/29 11:28:56;;;;;;;7.13;2.53;;;19.20;99.90;;;;;;7284489;19;20192;-75
2023/03/29 11:31:42;;;;;;;6.70;2.67;;;19.60;99.90;;;;;;7282777;19;20181;-75
2023/03/29 11:34:32;;;;;;;6.57;2.97;;;19.40;99.90;;;;;;7261706;19;20191;-73
2023/03/29 11:36:58;;;;;;;8.70;2.90;;;19.20;99.90;;;;;;7282666;19;20185;-73
2023/03/29 11:39:48;;;;;;;7.07;3.07;;;19.20;99.90;;;;;;7283417;19;20199;-73
2023/03/29 11:42:22;;;;;;;9.70;3.20;;;18.90;99.90;;;;;;7179409;19;2006283;-73
2023/03/29 11:44:52;;;;;;;9.73;3.00;;;19.10;99.90;;;;;;7282888;19;20188;-73
2023/03/29 11:47:21;;;;;;;6.97;3.43;;;19.20;99.90;;;;;;7281461;19;20248;-74
2023/03/29 11:49:58;;;;;;;8.87;4.10;;;19.10;99.90;;;;;;7279914;19;20210;-74
2023/03/29 11:52:27;;;;;;;8.07;3.80;;;18.70;99.90;;;;;;7281346;19;20222;-75
2023/03/29 11:55:02;;;;;;;8.60;4.03;;;18.50;99.90;;;;;;7281580;19;20200;-75
2023/03/29 11:58:03;;;;;;;10.37;4.03;;;18.30;99.90;;;;;;7281239;19;20385;-75
2023/03/29 12:00:41;;;;;;;10.10;3.87;;;18.50;99.90;;;;;;7178743;19;2004738;-75
2023/03/29 12:03:18;;;;;;;8.00;3.33;;;18.50;99.90;;;;;;7259315;19;20185;-74
2023/03/29 12:05:57;;;;;;;7.60;3.30;;;18.70;99.90;;;;;;7281364;19;20200;-75
2023/03/29 12:08:30;;;;;;;7.73;3.00;;;18.80;99.90;;;;;;7279652;19;20192;-75
2023/03/29 12:11:10;;;;;;;6.83;3.20;;;19.10;99.90;;;;;;7281465;19;20208;-75
2023/03/29 12:13:42;;;;;;;8.20;3.20;;;19.10;99.90;;;;;;7265636;19;20189;-75
2023/03/29 12:16:20;;;;;;;9.80;3.30;;;19.60;99.90;;;;;;7281319;19;20199;-76
2023/03/29 12:18:50;;;;;;;7.37;2.80;;;19.50;99.90;;;;;;7283667;19;20258;-75
2023/03/29 12:21:19;;;;;;;7.73;2.90;;;19.60;99.90;;;;;;7281730;19;20281;-75
2023/03/29 12:23:46;;;;;;;8.50;3.10;;;19.60;99.90;;;;;;7281599;19;20200;-75
2023/03/29 12:26:48;;;;;;;11.53;3.00;;;19.70;99.90;;;;;;7279710;19;20308;-75
2023/03/29 12:29:38;;;;;;;8.13;2.90;;;20.00;99.90;;;;;;7178006;19;2004666;-74
2023/03/29 12:32:35;;;;;;;7.83;3.00;;;20.10;99.90;;;;;;7283722;19;20202;-75
2023/03/29 12:35:50;;;;;;;9.30;3.23;;;20.10;99.90;;;;;;7078231;19;2005282;-75
2023/03/29 12:38:36;;;;;;;9.00;2.60;;;20.10;99.90;;;;;;7180799;19;2004452;-74
2023/03/29 12:41:23;;;;;;;9.93;2.60;;;20.10;99.90;;;;;;7179011;19;2004637;-74
2023/03/29 12:43:51;;;;;;;8.77;2.60;;;20.30;99.90;;;;;;7280576;19;20204;-75
2023/03/29 12:46:30;;;;;;;7.93;2.43;;;20.50;99.90;;;;;;7281824;19;20220;-74
2023/03/29 12:49:06;;;;;;;6.33;2.70;;;20.40;99.90;;;;;;7280705;19;20195;-74
2023/03/29 12:51:34;;;;;;;5.20;2.40;;;20.50;99.90;;;;;;7282154;19;20193;-75
2023/03/29 12:54:20;;;;;;;6.10;2.60;;;20.30;99.90;;;;;;7279948;19;20216;-75
2023/03/29 12:56:52;;;;;;;5.13;1.90;;;20.20;99.90;;;;;;7177048;19;2004781;-75
2023/03/29 12:59:43;;;;;;;6.87;2.30;;;20.00;99.90;;;;;;7281371;19;20189;-74
2023/03/29 13:02:12;;;;;;;8.20;2.20;;;20.00;99.90;;;;;;7259150;19;20275;-75
2023/03/29 13:04:57;;;;;;;5.07;2.67;;;20.20;99.90;;;;;;7279519;19;20255;-74
2023/03/29 13:07:25;;;;;;;6.10;2.77;;;19.90;99.90;;;;;;7279140;19;20539;-74
2023/03/29 13:10:02;;;;;;;6.23;2.17;;;19.50;99.90;;;;;;7279895;19;20189;-75
2023/03/29 13:12:36;;;;;;;7.30;2.40;;;19.60;99.90;;;;;;7281053;19;20197;-75
2023/03/29 13:15:20;;;;;;;7.73;3.00;;;19.70;99.90;;;;;;7280734;19;20185;-75